createdAt,value
2018-07-23T05:18:18.079Z,1012
2018-07-23T05:18:38.239Z,1020
2018-07-23T05:18:58.392Z,1032
2018-07-23T05:19:18.561Z,1044
2018-07-23T05:19:38.705Z,1056
2018-07-23T05:19:58.872Z,1068
2018-07-23T05:20:19.037Z,1072
2018-07-23T05:20:39.188Z,1076
2018-07-23T05:20:59.341Z,1076
2018-07-23T05:21:19.495Z,1068
2018-07-23T05:21:39.673Z,1060
2018-07-23T05:21:59.841Z,1056
2018-07-23T05:22:20.001Z,1048
2018-07-23T05:22:40.166Z,1044
2018-07-23T05:23:00.353Z,1036
2018-07-23T05:23:20.500Z,1032
2018-07-23T05:23:40.630Z,1028
2018-07-23T05:24:00.841Z,1020
2018-07-23T05:24:21.035Z,1012
2018-07-23T05:24:41.232Z,996
2018-07-23T05:25:01.369Z,980
2018-07-23T05:25:21.538Z,964
2018-07-23T05:25:41.684Z,948
2018-07-23T05:26:01.849Z,944
2018-07-23T05:26:22.224Z,936
2018-07-23T05:26:42.379Z,932
2018-07-23T05:27:02.522Z,932
2018-07-23T05:27:22.673Z,936
2018-07-23T05:27:42.808Z,944
2018-07-23T05:28:02.958Z,948
2018-07-23T05:28:23.103Z,952
2018-07-23T05:28:43.265Z,956
2018-07-23T05:29:03.434Z,960
2018-07-23T05:29:23.555Z,964
2018-07-23T05:29:43.722Z,964
2018-07-23T05:30:03.885Z,960
2018-07-23T05:30:24.052Z,964
2018-07-23T05:30:44.238Z,968
2018-07-23T05:31:04.402Z,968
2018-07-23T05:31:24.543Z,968
2018-07-23T05:31:44.698Z,976
2018-07-23T05:32:04.848Z,980
2018-07-23T05:32:25.006Z,984
2018-07-23T05:32:45.166Z,984
2018-07-23T05:33:05.321Z,988
2018-07-23T05:33:25.461Z,984
2018-07-23T05:45:28.422Z,1276
2018-07-23T05:45:48.584Z,1284
2018-07-23T05:46:08.721Z,1296
2018-07-23T05:46:28.869Z,1304
2018-07-23T05:46:49.014Z,1316
2018-07-23T05:47:09.189Z,1324
2018-07-23T05:47:29.352Z,1336
2018-07-23T05:47:49.521Z,1348
2018-07-23T05:48:09.706Z,1352
2018-07-23T05:48:29.866Z,1356
2018-07-23T05:48:50.014Z,1364
2018-07-23T05:49:10.165Z,1364
2018-07-23T05:49:30.298Z,1368
2018-07-23T05:49:50.422Z,1372
2018-07-23T05:50:10.600Z,1368
2018-07-23T05:50:30.745Z,1372
2018-07-23T05:50:50.901Z,1372
2018-07-23T05:51:11.056Z,1376
2018-07-23T05:51:31.221Z,1376
2018-07-23T05:51:51.372Z,1372
2018-07-23T05:52:11.528Z,1372
2018-07-23T05:52:31.686Z,1372
2018-07-23T05:52:51.825Z,1372
2018-07-23T05:53:11.982Z,1372
2018-07-23T05:53:32.120Z,1376
2018-07-23T05:53:52.277Z,1380
2018-07-23T05:54:12.492Z,1380
2018-07-23T05:54:32.651Z,1384
2018-07-23T05:54:52.804Z,1388
2018-07-23T05:55:12.985Z,1392
2018-07-23T05:55:33.126Z,1396
2018-07-23T05:55:53.300Z,1400
2018-07-23T05:56:13.461Z,1404
2018-07-23T05:56:33.625Z,1412
2018-07-23T05:56:53.772Z,1416
2018-07-23T05:57:13.925Z,1424
2018-07-23T05:57:34.111Z,1428
2018-07-23T05:57:54.239Z,1432
2018-07-23T05:58:14.391Z,1440
2018-07-23T05:58:34.541Z,1448
2018-07-23T05:58:54.749Z,1452
2018-07-23T05:59:14.852Z,1456
2018-07-23T05:59:35.071Z,1460
2018-07-23T05:59:55.177Z,1460
2018-07-23T06:00:15.331Z,1448
2018-07-23T06:00:35.537Z,1456
2018-07-23T06:00:55.632Z,1468
2018-07-23T06:01:15.792Z,1480
2018-07-23T06:01:35.917Z,1484
2018-07-23T06:01:56.081Z,1480
2018-07-23T06:02:16.269Z,1480
2018-07-23T06:02:36.481Z,1476
2018-07-23T06:02:56.624Z,1476
2018-07-23T06:03:16.776Z,1484
2018-07-23T06:03:37.002Z,1496
2018-07-23T06:03:57.230Z,1516
2018-07-23T06:04:17.381Z,1520
2018-07-23T06:04:37.527Z,1524
2018-07-23T06:04:57.697Z,1528
2018-07-23T06:05:17.860Z,1532
2018-07-23T06:05:38.043Z,1540
2018-07-23T06:05:58.176Z,1548
2018-07-23T06:06:18.358Z,1552
2018-07-23T06:06:38.619Z,1556
2018-07-23T06:06:59.105Z,1560
2018-07-23T06:07:19.414Z,1564
2018-07-23T06:07:39.543Z,1568
2018-07-23T06:07:59.691Z,1572
2018-07-23T06:08:19.872Z,1576
2018-07-23T06:08:40.030Z,1576
2018-07-23T06:09:00.172Z,1576
2018-07-23T06:09:20.331Z,1576
2018-07-23T06:09:40.471Z,1576
2018-07-23T06:10:00.652Z,1576
2018-07-23T06:10:20.806Z,1580
2018-07-23T06:10:40.968Z,1584
2018-07-23T06:11:01.119Z,1580
2018-07-23T06:11:21.289Z,1584
2018-07-23T06:11:41.468Z,1592
2018-07-23T06:12:01.616Z,1596
2018-07-23T06:12:21.761Z,1604
2018-07-23T06:12:41.921Z,1608
2018-07-23T06:13:02.083Z,1616
2018-07-23T06:13:22.267Z,1624
2018-07-23T06:13:42.410Z,1632
2018-07-23T06:14:02.561Z,1644
2018-07-23T06:14:22.740Z,1652
2018-07-23T06:14:42.851Z,1664
2018-07-23T06:15:03.021Z,1676
2018-07-23T06:15:23.169Z,1700
2018-07-23T06:15:43.307Z,1716
2018-07-23T06:16:03.465Z,1744
2018-07-23T06:16:23.628Z,1768
2018-07-23T06:16:43.783Z,1796
2018-07-23T06:17:03.934Z,1828
2018-07-23T06:17:24.131Z,1868
2018-07-23T06:17:44.298Z,1908
2018-07-23T06:18:04.473Z,1952
2018-07-23T06:18:24.624Z,2004
2018-07-23T06:18:44.805Z,2064
2018-07-23T06:19:04.952Z,2120
2018-07-23T06:19:25.169Z,2192
2018-07-23T06:19:45.274Z,2260
2018-07-23T06:20:05.440Z,2328
2018-07-23T06:20:25.600Z,2384
2018-07-23T06:20:45.749Z,2444
2018-07-23T06:21:05.902Z,2492
2018-07-23T06:21:26.065Z,2536
2018-07-23T06:21:46.239Z,2576
2018-07-23T06:22:06.409Z,2608
2018-07-23T06:22:26.599Z,2624
2018-07-23T06:22:46.679Z,2640
2018-07-23T06:23:06.840Z,2648
2018-07-23T06:23:26.985Z,2652
2018-07-23T06:23:47.157Z,2648
2018-07-23T06:24:07.345Z,2644
2018-07-23T06:24:27.514Z,2632
2018-07-23T06:24:47.669Z,2620
2018-07-23T06:25:07.831Z,2612
2018-07-23T06:25:27.993Z,2604
2018-07-23T06:25:48.164Z,2596
2018-07-23T06:26:08.295Z,2592
2018-07-23T06:26:28.432Z,2588
2018-07-23T06:26:48.583Z,2576
2018-07-23T06:27:08.742Z,2564
2018-07-23T06:27:28.925Z,2556
2018-07-23T06:27:49.078Z,2556
2018-07-23T06:28:09.279Z,2552
2018-07-23T06:28:29.471Z,2548
2018-07-23T06:28:49.591Z,2544
2018-07-23T06:29:09.747Z,2536
2018-07-23T06:29:29.904Z,2512
2018-07-23T06:29:50.082Z,2492
2018-07-23T06:30:10.386Z,2472
2018-07-23T06:30:30.460Z,2448
2018-07-23T06:30:50.623Z,2420
2018-07-23T06:31:10.810Z,2400
2018-07-23T06:31:30.968Z,2392
2018-07-23T06:31:51.140Z,2388
2018-07-23T06:32:11.292Z,2376
2018-07-23T06:32:31.491Z,2372
2018-07-23T06:32:51.651Z,2356
2018-07-23T06:33:11.832Z,2348
2018-07-23T06:33:31.977Z,2336
2018-07-23T06:33:52.203Z,2320
2018-07-23T06:34:12.379Z,2308
2018-07-23T06:34:32.503Z,2284
2018-07-23T06:34:52.687Z,2280
2018-07-23T06:35:12.844Z,2276
2018-07-23T06:35:33.020Z,2264
2018-07-23T06:35:53.199Z,2268
2018-07-23T06:36:13.356Z,2256
2018-07-23T06:36:33.519Z,2260
2018-07-23T06:36:53.685Z,2252
2018-07-23T06:37:13.799Z,2268
2018-07-23T06:37:33.989Z,2252
2018-07-23T06:37:54.140Z,2256
2018-07-23T06:38:14.294Z,2252
2018-07-23T06:38:34.472Z,2276
2018-07-23T06:38:54.601Z,2272
2018-07-23T06:39:14.728Z,2260
2018-07-23T06:39:34.878Z,2264
2018-07-23T06:39:55.029Z,2272
2018-07-23T06:40:15.203Z,2292
2018-07-23T06:40:35.369Z,2288
2018-07-23T06:40:55.533Z,2300
2018-07-23T06:41:15.680Z,2288
2018-07-23T06:41:35.826Z,2284
2018-07-23T06:41:55.991Z,2288
2018-07-23T06:42:16.152Z,2292
2018-07-23T06:42:36.325Z,2296
2018-07-23T06:42:56.504Z,2308
2018-07-23T06:43:16.676Z,2328
2018-07-23T06:43:36.823Z,2352
2018-07-23T06:43:56.984Z,2364
2018-07-23T06:44:17.138Z,2360
2018-07-23T06:44:37.308Z,2372
2018-07-23T06:44:57.466Z,2372
2018-07-23T06:45:17.620Z,2388
2018-07-23T06:45:37.771Z,2388
2018-07-23T06:45:57.939Z,2380
2018-07-23T06:46:18.105Z,2356
2018-07-23T06:46:38.299Z,2332
2018-07-23T06:46:58.401Z,2328
2018-07-23T06:47:18.536Z,2292
2018-07-23T06:47:38.676Z,2268
2018-07-23T06:47:58.842Z,2264
2018-07-23T06:48:18.982Z,2248
2018-07-23T06:48:39.131Z,2220
2018-07-23T06:48:59.369Z,2176
2018-07-23T06:49:19.491Z,2140
2018-07-23T06:49:39.656Z,2132
2018-07-23T06:49:59.812Z,2076
2018-07-23T06:50:19.974Z,2068
2018-07-23T06:50:40.157Z,2068
2018-07-23T06:51:00.334Z,2048
2018-07-23T06:51:20.481Z,2024
2018-07-23T06:51:40.621Z,2016
2018-07-23T06:52:00.777Z,2040
2018-07-23T06:52:20.944Z,2040
2018-07-23T06:52:41.112Z,2016
2018-07-23T06:53:01.274Z,2028
2018-07-23T06:53:21.440Z,2036
2018-07-23T06:53:41.616Z,2044
2018-07-23T06:54:01.840Z,2048
2018-07-23T06:54:21.925Z,2036
2018-07-23T06:54:42.092Z,2016
2018-07-23T06:55:02.230Z,1996
2018-07-23T06:55:22.385Z,1980
2018-07-23T06:55:42.540Z,1972
2018-07-23T06:56:02.681Z,1940
2018-07-23T06:56:22.876Z,1928
2018-07-23T06:56:43.033Z,1912
2018-07-23T06:57:03.251Z,1872
2018-07-23T06:57:23.474Z,1804
2018-07-23T06:57:43.572Z,1756
2018-07-23T06:58:03.711Z,1716
2018-07-23T06:58:23.873Z,1676
2018-07-23T06:58:44.086Z,1648
2018-07-23T06:59:04.247Z,1648
2018-07-23T06:59:24.418Z,1608
2018-07-23T06:59:44.582Z,1588
2018-07-23T07:00:04.759Z,1584
2018-07-23T07:00:24.891Z,1580
2018-07-23T07:00:45.143Z,1592
2018-07-23T07:01:05.293Z,1584
2018-07-23T07:01:25.461Z,1596
2018-07-23T07:01:45.627Z,1632
2018-07-23T07:02:05.788Z,1676
2018-07-23T07:02:25.953Z,1688
2018-07-23T07:02:46.136Z,1644
2018-07-23T07:03:06.285Z,1660
2018-07-23T07:03:26.457Z,1668
2018-07-23T07:03:46.617Z,1684
2018-07-23T07:04:06.774Z,1720
2018-07-23T07:04:26.938Z,1716
2018-07-23T07:04:47.107Z,1728
2018-07-23T07:05:07.278Z,1744
2018-07-23T07:05:27.430Z,1768
2018-07-23T07:05:47.592Z,1792
2018-07-23T07:06:07.736Z,1800
2018-07-23T07:06:27.991Z,1812
2018-07-23T07:06:48.098Z,1816
2018-07-23T07:07:08.259Z,1824
2018-07-23T07:07:28.435Z,1832
2018-07-23T07:07:48.598Z,1848
2018-07-23T07:08:08.761Z,1856
2018-07-23T07:08:28.921Z,1868
2018-07-23T07:08:49.077Z,1872
2018-07-23T07:09:09.246Z,1872
2018-07-23T07:09:29.410Z,1876
2018-07-23T07:09:49.560Z,1884
2018-07-23T07:10:09.752Z,1888
2018-07-23T07:10:29.921Z,1888
2018-07-23T07:10:50.063Z,1896
2018-07-23T07:11:10.221Z,1896
2018-07-23T07:11:30.390Z,1904
2018-07-23T07:11:50.559Z,1924
2018-07-23T07:12:10.709Z,1964
2018-07-23T07:12:30.890Z,2000
2018-07-23T07:12:51.030Z,2040
2018-07-23T07:13:11.217Z,2088
2018-07-23T07:13:31.462Z,2148
2018-07-23T07:13:51.760Z,2196
2018-07-23T07:14:11.921Z,2232
2018-07-23T07:14:32.066Z,2260
2018-07-23T07:14:52.210Z,2296
2018-07-23T07:15:12.383Z,2324
2018-07-23T07:15:32.525Z,2328
2018-07-23T07:15:52.686Z,2316
2018-07-23T07:16:12.840Z,2304
2018-07-23T07:16:33.019Z,2300
2018-07-23T07:16:53.160Z,2300
2018-07-23T07:17:13.317Z,2296
2018-07-23T07:17:33.476Z,2296
2018-07-23T07:17:53.631Z,2312
2018-07-23T07:18:13.790Z,2324
2018-07-23T07:18:33.943Z,2316
2018-07-23T07:18:54.066Z,2312
2018-07-23T07:19:14.239Z,2312
2018-07-23T07:19:34.393Z,2312
2018-07-23T07:19:54.587Z,2324
2018-07-23T07:20:14.727Z,2372
2018-07-23T07:20:34.879Z,2308
2018-07-23T07:20:55.050Z,2300
2018-07-23T07:21:15.209Z,2300
2018-07-23T07:21:35.363Z,2324
2018-07-23T07:21:55.523Z,2344
2018-07-23T07:22:15.675Z,2340
2018-07-23T07:22:35.813Z,2340
2018-07-23T07:22:55.981Z,2348
2018-07-23T07:23:16.127Z,2392
2018-07-23T07:23:36.267Z,2368
2018-07-23T07:23:56.409Z,2380
2018-07-23T07:24:16.546Z,2388
2018-07-23T07:24:36.683Z,2388
2018-07-23T07:24:56.810Z,2380
2018-07-23T07:25:16.972Z,2340
2018-07-23T07:25:37.140Z,2292
2018-07-23T07:25:57.295Z,2256
2018-07-23T07:26:17.430Z,2236
2018-07-23T07:26:37.584Z,2208
2018-07-23T07:26:57.739Z,2172
2018-07-23T07:27:17.910Z,2144
2018-07-23T07:27:38.054Z,2132
2018-07-23T07:27:58.255Z,2128
2018-07-23T07:28:18.406Z,2152
2018-07-23T07:28:38.538Z,2196
2018-07-23T07:28:58.715Z,2240
2018-07-23T07:29:18.865Z,2276
2018-07-23T07:29:39.033Z,2316
2018-07-23T07:29:59.200Z,2332
2018-07-23T07:30:19.353Z,2344
2018-07-23T07:30:39.498Z,2360
2018-07-23T07:30:59.667Z,2372
2018-07-23T07:31:19.815Z,2392
2018-07-23T07:31:39.967Z,2400
2018-07-23T07:32:00.125Z,2412
2018-07-23T07:32:20.314Z,2412
2018-07-23T07:32:40.498Z,2424
2018-07-23T07:33:00.667Z,2448
2018-07-23T07:33:20.822Z,2480
2018-07-23T07:33:40.979Z,2500
2018-07-23T07:34:01.135Z,2516
2018-07-23T07:34:21.306Z,2520
2018-07-23T07:34:41.462Z,2532
2018-07-23T07:35:01.649Z,2504
2018-07-23T07:35:21.799Z,2456
2018-07-23T07:35:41.939Z,2412
2018-07-23T07:36:02.156Z,2372
2018-07-23T07:36:22.313Z,2344
2018-07-23T07:36:42.468Z,2304
2018-07-23T07:37:02.643Z,2284
2018-07-23T07:37:22.816Z,2276
2018-07-23T07:37:42.983Z,2260
2018-07-23T07:38:03.203Z,2276
2018-07-23T07:38:23.357Z,2248
2018-07-23T07:38:43.442Z,2232
2018-07-23T07:39:03.599Z,2224
2018-07-23T07:39:23.722Z,2216
2018-07-23T07:39:43.887Z,2208
2018-07-23T07:40:04.074Z,2216
2018-07-23T07:40:24.229Z,2224
2018-07-23T07:40:44.368Z,2252
2018-07-23T07:41:04.508Z,2276
2018-07-23T07:41:24.688Z,2300
2018-07-23T07:41:44.843Z,2312
2018-07-23T07:42:04.996Z,2316
2018-07-23T07:42:25.146Z,2316
2018-07-23T07:42:45.302Z,2308
2018-07-23T07:43:05.437Z,2324
2018-07-23T07:43:25.605Z,2352
2018-07-23T07:43:45.768Z,2400
2018-07-23T07:44:05.905Z,2408
2018-07-23T07:44:26.059Z,2416
2018-07-23T07:44:46.239Z,2416
2018-07-23T07:45:06.404Z,2408
2018-07-23T07:45:26.586Z,2392
2018-07-23T07:45:46.733Z,2400
2018-07-23T07:46:06.888Z,2408
2018-07-23T07:46:27.138Z,2428
2018-07-23T07:46:47.280Z,2500
2018-07-23T07:47:07.426Z,2424
2018-07-23T07:47:27.567Z,2432
2018-07-23T07:47:47.721Z,2448
2018-07-23T07:48:07.904Z,2460
2018-07-23T07:48:28.035Z,2484
2018-07-23T07:48:48.191Z,2516
2018-07-23T07:49:08.358Z,2608
2018-07-23T07:49:28.503Z,2616
2018-07-23T07:49:48.687Z,2632
2018-07-23T07:50:08.856Z,2628
2018-07-23T07:50:28.994Z,2620
2018-07-23T07:50:49.149Z,2628
2018-07-23T07:51:09.287Z,2628
2018-07-23T07:51:29.454Z,2684
2018-07-23T07:51:49.622Z,2720
2018-07-23T07:52:09.785Z,2692
2018-07-23T07:52:29.960Z,2708
2018-07-23T07:52:50.187Z,2732
2018-07-23T07:53:10.339Z,2716
2018-07-23T07:53:30.498Z,2736
2018-07-23T07:53:50.609Z,2700
2018-07-23T07:54:10.746Z,2588
2018-07-23T07:54:30.887Z,2508
2018-07-23T07:54:51.059Z,2444
2018-07-23T07:55:11.213Z,2400
2018-07-23T07:55:31.370Z,2368
2018-07-23T07:55:51.539Z,2356
2018-07-23T07:56:11.737Z,2316
2018-07-23T07:56:31.849Z,2312
2018-07-23T07:56:52.019Z,2300
2018-07-23T07:57:12.158Z,2284
2018-07-23T07:57:32.325Z,2272
2018-07-23T07:57:52.490Z,2248
2018-07-23T07:58:12.652Z,2224
2018-07-23T07:58:32.790Z,2204
2018-07-23T07:58:52.989Z,2284
2018-07-23T07:59:13.145Z,2204
2018-07-23T07:59:33.240Z,2240
2018-07-23T07:59:53.407Z,2280
2018-07-23T08:00:13.565Z,2288
2018-07-23T08:00:33.711Z,2308
2018-07-23T08:00:53.865Z,2352
2018-07-23T08:01:14.030Z,2388
2018-07-23T08:01:34.221Z,2372
2018-07-23T08:01:54.408Z,2404
2018-07-23T08:02:14.582Z,2412
2018-07-23T08:02:34.751Z,2304
2018-07-23T08:02:54.918Z,2248
2018-07-23T08:03:15.096Z,2172
2018-07-23T08:03:35.263Z,2224
2018-07-23T08:03:55.410Z,2184
2018-07-23T08:04:15.567Z,2176
2018-07-23T08:04:35.707Z,2128
2018-07-23T08:04:55.871Z,2108
2018-07-23T08:05:16.022Z,2128
2018-07-23T08:05:36.181Z,2120
2018-07-23T08:05:56.336Z,2116
2018-07-23T08:06:16.485Z,1968
2018-07-23T08:06:36.633Z,1856
2018-07-23T08:06:56.788Z,1820
2018-07-23T08:07:17.022Z,1768
2018-07-23T08:07:37.181Z,1868
2018-07-23T08:07:57.329Z,1852
2018-07-23T08:08:17.485Z,1880
2018-07-23T08:08:37.639Z,1796
2018-07-23T08:08:57.793Z,1744
2018-07-23T08:09:17.959Z,1752
2018-07-23T08:09:38.146Z,1748
2018-07-23T08:09:58.314Z,1636
2018-07-23T08:10:18.467Z,1612
2018-07-23T08:10:38.633Z,1592
2018-07-23T08:10:58.804Z,1596
2018-07-23T08:11:18.936Z,1580
2018-07-23T08:11:39.093Z,1556
2018-07-23T08:11:59.264Z,1548
2018-07-23T08:12:19.402Z,1540
2018-07-23T08:12:39.614Z,1536
2018-07-23T08:12:59.707Z,1608
2018-07-23T08:13:19.903Z,1532
2018-07-23T08:13:40.026Z,1528
2018-07-23T08:14:00.122Z,1528
2018-07-23T08:14:20.322Z,1524
2018-07-23T08:14:40.460Z,1524
2018-07-23T08:15:00.677Z,1540
2018-07-23T08:15:20.786Z,1560
2018-07-23T08:15:40.947Z,1620
2018-07-23T08:16:01.118Z,1716
2018-07-23T08:16:21.278Z,1708
2018-07-23T08:16:41.419Z,1696
2018-07-23T08:17:01.572Z,1700
2018-07-23T08:17:21.721Z,1672
2018-07-23T08:17:41.901Z,1632
2018-07-23T08:18:02.330Z,1644
2018-07-23T08:18:22.491Z,1644
2018-07-23T08:18:42.639Z,1596
2018-07-23T08:19:02.807Z,1664
2018-07-23T08:19:22.978Z,1664
2018-07-23T08:19:43.131Z,1660
2018-07-23T08:20:03.286Z,1660
2018-07-23T08:20:23.432Z,1636
2018-07-23T08:20:43.608Z,1620
2018-07-23T08:21:03.789Z,1628
2018-07-23T08:21:23.943Z,1628
2018-07-23T08:21:44.079Z,1628
2018-07-23T08:22:04.212Z,1628
2018-07-23T08:22:24.370Z,1628
2018-07-23T08:22:44.536Z,1620
2018-07-23T08:23:04.706Z,1596
2018-07-23T08:23:24.856Z,1548
2018-07-23T08:23:44.998Z,1600
2018-07-23T08:24:05.167Z,1616
2018-07-23T08:24:25.354Z,1640
2018-07-23T08:24:45.521Z,1648
2018-07-23T08:25:05.737Z,1660
2018-07-23T08:25:25.835Z,1656
2018-07-23T08:25:45.987Z,1660
2018-07-23T08:26:06.145Z,1668
2018-07-23T08:26:26.329Z,1660
2018-07-23T08:26:46.481Z,1644
2018-07-23T08:27:06.651Z,1632
2018-07-23T08:27:26.809Z,1632
2018-07-23T08:27:47.011Z,1620
2018-07-23T08:28:07.175Z,1608
2018-07-23T08:28:27.336Z,1608
2018-07-23T08:28:47.485Z,1620
2018-07-23T08:29:07.630Z,1628
2018-07-23T08:29:27.776Z,1636
2018-07-23T08:29:47.952Z,1632
2018-07-23T08:30:08.131Z,1636
2018-07-23T08:30:28.306Z,1616
2018-07-23T08:30:48.486Z,1584
2018-07-23T08:31:08.655Z,1592
2018-07-23T08:31:28.781Z,1584
2018-07-23T08:31:49.057Z,1468
2018-07-23T08:32:09.200Z,1496
2018-07-23T08:32:29.325Z,1484
2018-07-23T08:32:49.468Z,1564
2018-07-23T08:33:09.598Z,1592
2018-07-23T08:33:29.755Z,1604
2018-07-23T08:33:49.907Z,1608
2018-07-23T08:34:10.059Z,1620
2018-07-23T08:34:30.205Z,1628
2018-07-23T08:34:50.342Z,1636
2018-07-23T08:35:10.511Z,1640
2018-07-23T08:35:30.642Z,1648
2018-07-23T08:35:50.796Z,1640
2018-07-23T08:36:10.956Z,1648
2018-07-23T08:36:31.103Z,1660
2018-07-23T08:36:51.273Z,1640
2018-07-23T08:37:11.488Z,1640
2018-07-23T08:37:31.601Z,1644
2018-07-23T08:37:51.744Z,1648
2018-07-23T08:38:11.906Z,1628
2018-07-23T08:38:32.067Z,1624
2018-07-23T08:38:52.273Z,1632
2018-07-23T08:39:12.440Z,1628
2018-07-23T08:39:32.659Z,1628
2018-07-23T08:39:52.730Z,1636
2018-07-23T08:40:12.880Z,1632
2018-07-23T08:40:33.127Z,1624
2018-07-23T08:40:53.379Z,1628
2018-07-23T08:41:13.478Z,1616
2018-07-23T08:41:33.631Z,1612
2018-07-23T08:41:53.761Z,1608
2018-07-23T08:42:13.901Z,1600
2018-07-23T08:42:34.059Z,1600
2018-07-23T08:42:54.182Z,1596
2018-07-23T08:43:14.348Z,1596
2018-07-23T08:43:34.506Z,1600
2018-07-23T08:43:54.649Z,1604
2018-07-23T08:44:14.830Z,1612
2018-07-23T08:44:34.999Z,1624
2018-07-23T08:44:55.213Z,1632
2018-07-23T08:45:15.361Z,1636
2018-07-23T08:45:35.501Z,1644
2018-07-23T08:45:55.735Z,1644
2018-07-23T08:46:15.885Z,1640
2018-07-23T08:46:36.020Z,1636
2018-07-23T08:46:56.191Z,1632
2018-07-23T08:47:16.376Z,1616
2018-07-23T08:47:36.541Z,1624
2018-07-23T08:47:56.691Z,1636
2018-07-23T08:48:16.863Z,1648
2018-07-23T08:48:37.075Z,1656
2018-07-23T08:48:57.263Z,1660
2018-07-23T08:49:17.416Z,1684
2018-07-23T08:49:37.565Z,1684
2018-07-23T08:49:57.740Z,1692
2018-07-23T08:50:17.890Z,1704
2018-07-23T08:50:38.041Z,1724
2018-07-23T08:50:58.193Z,1744
2018-07-23T08:51:18.417Z,1768
2018-07-23T08:51:38.577Z,1764
2018-07-23T08:51:58.729Z,1748
2018-07-23T08:52:18.922Z,1736
2018-07-23T08:52:39.073Z,1740
2018-07-23T08:52:59.242Z,1736
2018-07-23T08:53:19.384Z,1756
2018-07-23T08:53:39.535Z,1748
2018-07-23T08:53:59.681Z,1724
2018-07-23T08:54:19.844Z,1700
2018-07-23T08:54:40.016Z,1680
2018-07-23T08:55:00.164Z,1612
2018-07-23T08:55:20.311Z,1412
2018-07-23T08:55:40.467Z,1600
2018-07-23T08:56:00.653Z,1684
2018-07-23T08:56:20.790Z,1664
2018-07-23T08:56:40.935Z,1652
2018-07-23T08:57:01.117Z,1648
2018-07-23T08:57:21.318Z,1644
2018-07-23T08:57:41.632Z,1644
2018-07-23T08:58:01.802Z,1624
2018-07-23T08:58:21.982Z,1628
2018-07-23T08:58:42.134Z,1656
2018-07-23T08:59:02.291Z,1660
2018-07-23T08:59:22.451Z,1660
2018-07-23T08:59:42.616Z,1644
2018-07-23T09:00:02.765Z,1648
2018-07-23T09:00:22.925Z,1636
2018-07-23T09:00:43.082Z,1648
2018-07-23T09:01:03.215Z,1420
2018-07-23T09:01:23.356Z,1540
2018-07-23T09:01:43.509Z,1652
2018-07-23T09:02:03.670Z,1664
2018-07-23T09:02:23.867Z,1652
2018-07-23T09:02:43.989Z,1652
2018-07-23T09:03:04.145Z,1648
2018-07-23T09:03:24.310Z,1664
2018-07-23T09:03:44.467Z,1640
2018-07-23T09:04:04.653Z,1640
2018-07-23T09:04:24.810Z,1644
2018-07-23T09:04:44.948Z,1644
2018-07-23T09:05:05.109Z,1656
2018-07-23T09:05:26.112Z,1668
2018-07-23T09:05:46.502Z,1668
2018-07-23T09:06:06.630Z,1676
2018-07-23T09:06:26.784Z,1668
2018-07-23T09:06:46.945Z,1668
2018-07-23T09:07:07.103Z,1672
2018-07-23T09:07:27.269Z,1688
2018-07-23T09:07:47.411Z,1680
2018-07-23T09:08:07.579Z,1676
2018-07-23T09:08:27.757Z,1680
2018-07-23T09:08:48.039Z,1676
2018-07-23T09:09:08.276Z,1680
2018-07-23T09:09:28.418Z,1668
2018-07-23T09:09:48.572Z,1676
2018-07-23T09:10:08.720Z,1656
2018-07-23T09:10:28.906Z,1644
2018-07-23T09:10:49.041Z,1624
2018-07-23T09:11:09.178Z,1648
2018-07-23T09:11:29.334Z,1636
2018-07-23T09:11:49.484Z,1644
2018-07-23T09:12:09.614Z,1628
2018-07-23T09:12:29.784Z,1632
2018-07-23T09:12:49.949Z,1636
2018-07-23T09:13:11.004Z,1636
2018-07-23T09:13:31.178Z,1636
2018-07-23T09:13:51.358Z,1632
2018-07-23T09:14:11.535Z,1648
2018-07-23T09:14:31.719Z,1608
2018-07-23T09:14:51.858Z,1564
2018-07-23T09:15:12.022Z,1580
2018-07-23T09:15:32.183Z,1588
2018-07-23T09:15:52.354Z,1576
2018-07-23T09:16:12.516Z,1592
2018-07-23T09:16:32.661Z,1416
2018-07-23T09:16:52.819Z,1492
2018-07-23T09:17:13.018Z,1384
2018-07-23T09:17:33.196Z,1592
2018-07-23T09:17:53.333Z,1620
2018-07-23T09:18:13.478Z,1636
2018-07-23T09:18:33.642Z,1648
2018-07-23T09:18:53.826Z,1648
2018-07-23T09:19:14.001Z,1648
2018-07-23T09:19:34.166Z,1624
2018-07-23T09:19:54.330Z,1624
2018-07-23T09:20:14.498Z,1636
2018-07-23T09:20:34.661Z,1648
2018-07-23T09:20:54.816Z,1676
2018-07-23T09:21:14.970Z,1676
2018-07-23T09:21:35.176Z,1696
2018-07-23T09:21:55.342Z,1712
2018-07-23T09:22:15.517Z,1716
2018-07-23T09:22:35.690Z,1724
2018-07-23T09:22:55.855Z,1716
2018-07-23T09:23:16.013Z,1704
2018-07-23T09:23:36.158Z,1704
2018-07-23T09:23:56.490Z,1700
2018-07-23T09:24:16.517Z,1688
2018-07-23T09:24:36.661Z,1680
2018-07-23T09:24:56.851Z,1664
2018-07-23T09:25:17.008Z,1676
2018-07-23T09:25:37.175Z,1668
2018-07-23T09:25:57.393Z,1664
2018-07-23T09:26:17.545Z,1668
2018-07-23T09:26:37.706Z,1656
2018-07-23T09:26:57.855Z,1676
2018-07-23T09:27:18.043Z,1672
2018-07-23T09:27:38.202Z,1656
2018-07-23T09:27:58.418Z,1660
2018-07-23T09:28:18.554Z,1652
2018-07-23T09:28:38.666Z,1652
2018-07-23T09:28:58.827Z,1680
2018-07-23T09:29:18.989Z,1684
2018-07-23T09:29:39.148Z,1676
2018-07-23T09:29:59.312Z,1684
2018-07-23T09:30:19.472Z,1676
2018-07-23T09:30:39.630Z,1684
2018-07-23T09:30:59.842Z,1700
2018-07-23T09:31:19.935Z,1704
2018-07-23T09:31:40.110Z,1712
2018-07-23T09:32:00.279Z,1708
2018-07-23T09:32:20.438Z,1724
2018-07-23T09:32:40.607Z,1720
2018-07-23T09:33:00.767Z,1740
2018-07-23T09:33:20.906Z,1732
2018-07-23T09:33:41.082Z,1740
2018-07-23T09:34:01.239Z,1740
2018-07-23T09:34:21.416Z,1736
2018-07-23T09:34:41.597Z,1740
2018-07-23T09:35:01.719Z,1744
2018-07-23T09:35:21.888Z,1740
2018-07-23T09:35:42.031Z,1776
2018-07-23T09:36:02.233Z,1740
2018-07-23T09:36:22.382Z,1728
2018-07-23T09:36:42.542Z,1712
2018-07-23T09:37:02.720Z,1708
2018-07-23T09:37:22.936Z,1696
2018-07-23T09:37:43.107Z,1696
2018-07-23T09:38:03.271Z,1708
2018-07-23T09:38:23.469Z,1692
2018-07-23T09:38:43.598Z,1680
2018-07-23T09:39:03.759Z,1676
2018-07-23T09:39:23.937Z,1632
2018-07-23T09:39:44.086Z,1668
2018-07-23T09:40:04.244Z,1660
2018-07-23T09:40:24.411Z,1688
2018-07-23T09:40:44.545Z,1692
2018-07-23T09:41:04.705Z,1712
2018-07-23T09:41:24.872Z,1720
2018-07-23T09:41:45.060Z,1676
2018-07-23T09:42:05.211Z,1424
2018-07-23T09:42:25.353Z,1756
2018-07-23T09:42:45.507Z,1368
2018-07-23T09:43:05.686Z,1336
2018-07-23T09:43:25.876Z,1328
2018-07-23T09:43:46.032Z,1324
2018-07-23T09:44:06.201Z,1328
2018-07-23T09:44:26.336Z,1360
2018-07-23T09:44:46.481Z,1480
2018-07-23T09:45:06.638Z,1832
2018-07-23T09:45:26.801Z,1872
2018-07-23T09:45:47.008Z,1924
2018-07-23T09:46:07.135Z,1960
2018-07-23T09:46:27.283Z,2024
2018-07-23T09:46:47.438Z,2084
2018-07-23T09:47:07.588Z,2148
2018-07-23T09:47:27.739Z,2172
2018-07-23T09:47:47.893Z,2204
2018-07-23T09:48:08.044Z,2212
2018-07-23T09:48:28.215Z,2228
2018-07-23T09:48:48.384Z,2252
2018-07-23T09:49:08.534Z,2264
2018-07-23T09:49:28.687Z,2308
2018-07-23T09:49:48.839Z,2232
2018-07-23T09:50:08.998Z,2100
2018-07-23T09:50:29.147Z,2032
2018-07-23T09:50:49.307Z,2016
2018-07-23T09:51:09.447Z,2008
2018-07-23T09:51:29.572Z,2000
2018-07-23T09:51:49.789Z,1988
2018-07-23T09:52:09.956Z,1976
2018-07-23T09:52:30.097Z,1944
2018-07-23T09:52:50.254Z,1880
2018-07-23T09:53:10.410Z,1832
2018-07-23T09:53:30.571Z,1780
2018-07-23T09:53:50.739Z,1744
2018-07-23T09:54:10.908Z,1720
2018-07-23T09:54:31.069Z,1704
2018-07-23T09:54:51.238Z,1700
2018-07-23T09:55:11.400Z,1696
2018-07-23T09:55:31.567Z,1692
2018-07-23T09:55:51.708Z,1680
2018-07-23T09:56:11.842Z,1300
2018-07-23T09:56:32.028Z,1232
2018-07-23T09:56:52.179Z,1236
2018-07-23T09:57:12.343Z,1268
2018-07-23T09:57:32.462Z,1304
2018-07-23T09:57:52.996Z,1692
2018-07-23T09:58:13.184Z,1416
2018-07-23T09:58:33.358Z,1268